Time;durP1;ratioP1;P1;durP2;ratioP2;P2;SDS_P1;SDS_P2;PMS_P1;PMS_P2;Temp;Humidity;BMP_temperature;BMP_pressure;BME280_temperature;BME280_humidity;BME280_pressure;Samples;Min_cycle;Max_cycle;Signal;HPM_P1;HPM_P2
2022/02/15 00:01:50;;;;;;;19.10;13.15;;;;;;;9.17;57.40;100624.22;5107640;28;20415;-66
2022/02/15 00:04:35;;;;;;;17.50;11.88;;;;;;;9.17;57.80;100616.09;5105433;28;20043;-66
2022/02/15 00:07:20;;;;;;;25.67;16.63;;;;;;;9.05;58.39;100610.41;5114283;28;20050;-66
2022/02/15 00:10:08;;;;;;;26.55;14.32;;;;;;;8.99;59.49;100603.47;5113223;28;20502;-66
2022/02/15 00:12:53;;;;;;;24.75;16.90;;;;;;;9.10;58.87;100599.44;5107761;28;20076;-66
2022/02/15 00:15:38;;;;;;;23.88;16.48;;;;;;;9.10;58.88;100594.00;5111360;28;20043;-65
2022/02/15 00:18:23;;;;;;;25.90;15.93;;;;;;;9.02;59.13;100600.19;5109264;28;20050;-65
2022/02/15 00:21:08;;;;;;;26.02;16.88;;;;;;;8.85;59.97;100591.88;5114249;28;20054;-65
2022/02/15 00:23:53;;;;;;;24.77;16.00;;;;;;;8.85;59.99;100581.84;5113284;28;20042;-65
2022/02/15 00:26:38;;;;;;;;;;;;;;;8.87;61.39;100586.97;5114384;28;20066;-65
2022/02/15 00:29:24;;;;;;;24.00;17.13;;;;;;;8.75;61.02;100575.84;5114185;28;19912;-65
2022/02/15 00:32:09;;;;;;;26.20;15.98;;;;;;;8.69;61.38;100577.88;5113457;28;20791;-65
2022/02/15 00:34:53;;;;;;;21.35;14.52;;;;;;;8.61;61.51;100570.47;5113527;28;20047;-65
2022/02/15 00:37:38;;;;;;;21.67;14.75;;;;;;;8.78;61.32;100565.22;5113220;28;20038;-65
2022/02/15 00:40:23;;;;;;;22.90;14.90;;;;;;;8.94;60.05;100560.22;5113778;28;20047;-65
2022/02/15 00:43:08;;;;;;;24.45;14.23;;;;;;;8.90;60.68;100557.31;5113733;28;20050;-65
2022/02/15 00:45:53;;;;;;;21.85;14.73;;;;;;;8.85;60.85;100549.31;5113415;28;20403;-65
2022/02/15 00:48:38;;;;;;;23.52;14.18;;;;;;;8.89;61.53;100544.88;5124426;27;20038;-65
2022/02/15 00:51:24;;;;;;;22.95;13.90;;;;;;;8.78;61.74;100540.00;5120429;27;20070;-65
2022/02/15 00:54:08;;;;;;;20.02;13.55;;;;;;;8.65;61.68;100557.13;5113197;28;20050;-67
2022/02/15 00:56:54;;;;;;;20.63;13.43;;;;;;;8.53;62.26;100569.28;5113351;28;20046;-67
2022/02/15 00:59:39;;;;;;;24.42;15.90;;;;;;;8.40;62.95;100572.84;5113348;28;20054;-67
2022/02/15 01:02:24;;;;;;;28.77;19.27;;;;;;;8.57;62.87;100558.66;5113412;28;20046;-68
2022/02/15 01:05:09;;;;;;;23.25;15.13;;;;;;;8.50;62.94;100542.81;5113134;28;20066;-67
2022/02/15 01:07:55;;;;;;;28.02;18.27;;;;;;;8.41;62.66;100550.06;5112598;28;20410;-66
2022/02/15 01:10:41;;;;;;;24.10;14.60;;;;;;;8.48;63.37;100552.38;5093467;28;20047;-66
2022/02/15 01:13:26;;;;;;;29.35;19.23;;;;;;;8.46;63.51;100547.25;5133531;27;20585;-67
2022/02/15 01:16:12;;;;;;;30.33;20.08;;;;;;;8.42;63.07;100540.03;5133463;27;20791;-67
2022/02/15 01:18:57;;;;;;;31.10;21.05;;;;;;;8.32;64.07;100535.63;5121484;27;20047;-67
2022/02/15 01:21:42;;;;;;;23.45;16.70;;;;;;;8.24;64.06;100528.19;5092718;28;20043;-66
2022/02/15 01:24:27;;;;;;;24.05;16.88;;;;;;;8.31;63.97;100528.63;5092434;28;20051;-66
2022/02/15 01:27:12;;;;;;;32.10;20.73;;;;;;;8.32;63.94;100521.28;5097451;28;20051;-65
2022/02/15 01:29:57;;;;;;;24.83;16.88;;;;;;;8.52;63.80;100513.50;5112848;28;20046;-66
2022/02/15 01:32:43;;;;;;;29.95;19.67;;;;;;;8.37;63.75;100507.63;5105048;28;20046;-67
2022/02/15 01:35:27;;;;;;;23.38;15.70;;;;;;;8.30;63.89;100508.03;5107289;28;20063;-67
2022/02/15 01:38:13;;;;;;;25.30;16.42;;;;;;;8.13;64.45;100494.28;5102261;28;20404;-67
2022/02/15 01:40:57;;;;;;;22.70;16.13;;;;;;;8.19;64.90;100484.94;5092867;28;20043;-67
2022/02/15 01:43:46;;;;;;;27.88;17.55;;;;;;;8.13;65.05;100483.47;5093088;28;20415;-67
2022/02/15 01:46:32;;;;;;;28.70;19.73;;;;;;;8.23;64.66;100469.69;5093373;28;20043;-67
2022/02/15 01:49:18;;;;;;;32.88;19.95;;;;;;;8.42;64.09;100453.31;5109695;28;20035;-67
2022/02/15 01:52:04;;;;;;;30.02;19.77;;;;;;;8.46;63.59;100449.69;5114314;28;20055;-67
2022/02/15 01:54:50;;;;;;;;;;;;;;;8.37;64.28;100445.31;5114334;28;20043;-67
2022/02/15 01:57:35;;;;;;;31.60;20.30;;;;;;;8.35;64.63;100442.91;5114294;28;19911;-66
2022/02/15 02:00:39;;;;;;;31.05;20.85;;;;;;;8.48;64.59;100438.56;5093238;28;20052;-67
2022/02/15 02:03:35;;;;;;;26.88;19.73;;;;;;;8.56;64.37;100438.59;5093056;28;20062;-67
2022/02/15 02:06:20;;;;;;;22.13;15.95;;;;;;;8.33;64.97;100436.22;5093206;28;20047;-67
2022/02/15 02:09:05;;;;;;;21.83;14.10;;;;;;;8.18;64.75;100426.47;5093220;28;20047;-67
2022/02/15 02:11:50;;;;;;;23.92;14.93;;;;;;;8.09;65.84;100428.31;5092232;28;20047;-67
2022/02/15 02:14:41;;;;;;;24.85;18.85;;;;;;;8.18;65.44;100421.84;5092179;28;20051;-67
2022/02/15 02:17:27;;;;;;;22.13;15.57;;;;;;;8.18;66.12;100419.16;5092588;28;20404;-67
2022/02/15 02:20:14;;;;;;;29.08;19.58;;;;;;;8.12;65.79;100416.88;5110164;28;20047;-67
2022/02/15 02:22:59;;;;;;;31.20;19.73;;;;;;;8.13;66.02;100407.63;5116517;28;20074;-67
2022/02/15 02:25:44;;;;;;;25.45;16.52;;;;;;;8.13;65.76;100396.81;5116150;28;20051;-67
2022/02/15 02:28:32;;;;;;;31.92;21.15;;;;;;;8.15;66.10;100394.59;5116028;27;20506;-67
2022/02/15 02:31:17;;;;;;;28.73;18.30;;;;;;;8.06;66.36;100389.13;5108581;28;20047;-67
2022/02/15 02:34:12;;;;;;;21.27;15.98;;;;;;;8.03;66.94;100397.84;5115578;28;20050;-66
2022/02/15 02:36:58;;;;;;;30.17;19.27;;;;;;;7.98;67.01;100392.53;5116772;28;20046;-67
2022/02/15 02:39:48;;;;;;;28.83;18.67;;;;;;;8.09;67.08;100396.63;5109650;28;20039;-67
2022/02/15 02:42:35;;;;;;;32.25;20.77;;;;;;;8.01;66.79;100389.25;5101089;28;20051;-67
2022/02/15 02:45:22;;;;;;;30.00;18.90;;;;;;;8.03;67.00;100386.19;5095958;28;20691;-67
2022/02/15 02:48:07;;;;;;;26.95;19.23;;;;;;;8.02;67.19;100384.63;5096168;28;20071;-67
2022/02/15 02:50:53;;;;;;;26.95;18.67;;;;;;;7.98;67.22;100387.13;5096365;28;20047;-67
2022/02/15 02:53:38;;;;;;;25.08;15.32;;;;;;;7.98;67.33;100383.63;5095774;28;20051;-67
2022/02/15 02:56:23;;;;;;;21.15;15.40;;;;;;;8.06;66.81;100377.47;5095939;28;20043;-66
2022/02/15 02:59:11;;;;;;;28.83;19.70;;;;;;;8.07;67.20;100366.34;5105776;28;20067;-67
2022/02/15 03:01:56;;;;;;;22.10;15.55;;;;;;;8.17;66.83;100359.91;5116747;28;20047;-66
2022/02/15 03:04:43;;;;;;;29.15;20.73;;;;;;;8.10;66.77;100356.81;5115846;28;20062;-66
2022/02/15 03:07:34;;;;;;;26.65;18.55;;;;;;;8.07;66.41;100360.13;5116124;28;20058;-66
2022/02/15 03:10:19;;;;;;;25.55;17.60;;;;;;;8.13;66.66;100348.84;5115252;28;20055;-66
2022/02/15 03:13:04;;;;;;;22.02;15.15;;;;;;;8.04;66.92;100352.59;5116071;28;20042;-66
2022/02/15 03:15:49;;;;;;;19.42;13.20;;;;;;;8.12;66.32;100343.78;5115603;28;20067;-66
2022/02/15 03:18:34;;;;;;;20.40;14.70;;;;;;;7.95;67.46;100335.50;5115559;28;20058;-66
2022/02/15 03:21:25;;;;;;;25.13;18.45;;;;;;;8.06;67.05;100343.09;5095719;28;20054;-66
2022/02/15 03:24:11;;;;;;;28.58;18.45;;;;;;;8.18;65.88;100345.22;5094797;28;20051;-67
2022/02/15 03:26:59;;;;;;;26.58;18.52;;;;;;;8.11;66.19;100345.66;5095576;28;20043;-67
2022/02/15 03:29:44;;;;;;;25.48;16.73;;;;;;;8.15;66.50;100335.00;5102616;28;20039;-67
2022/02/15 03:32:29;;;;;;;21.05;15.30;;;;;;;8.12;66.34;100335.66;5115291;28;20054;-67
2022/02/15 03:35:16;;;;;;;20.23;14.98;;;;;;;8.05;66.82;100344.19;5115393;28;20051;-69
2022/02/15 03:38:06;;;;;;;28.42;18.60;;;;;;;8.08;67.81;100348.19;5115664;28;20066;-67
2022/02/15 03:44:04;;;;;;;21.15;14.63;;;;;;;8.04;66.99;100333.66;5096225;28;20071;-67
2022/02/15 03:46:54;;;;;;;18.52;13.50;;;;;;;7.91;67.82;100329.91;5094958;28;20051;-71
2022/02/15 03:49:41;;;;;;;19.77;14.10;;;;;;;8.06;66.62;100320.63;5094420;28;20063;-69
2022/02/15 03:52:29;;;;;;;20.95;14.52;;;;;;;8.17;65.90;100321.97;5100130;28;20055;-69
2022/02/15 03:55:14;;;;;;;23.80;12.98;;;;;;;8.14;66.70;100317.97;5094918;28;20061;-70
2022/02/15 03:57:59;;;;;;;27.95;14.80;;;;;;;8.03;67.80;100299.56;5108569;28;20038;-70
2022/02/15 04:00:44;;;;;;;32.35;17.27;;;;;;;7.92;68.06;100309.88;5110581;28;20057;-70
2022/02/15 04:03:42;;;;;;;28.73;16.58;;;;;;;7.87;68.37;100306.47;5113433;28;20066;-70
2022/02/15 04:06:29;;;;;;;21.60;14.30;;;;;;;7.89;68.33;100301.53;5114137;28;20066;-70
2022/02/15 04:09:14;;;;;;;22.80;15.32;;;;;;;8.14;66.95;100304.44;5093637;28;20051;-71
2022/02/15 04:11:59;;;;;;;19.02;12.77;;;;;;;8.01;66.80;100296.38;5108656;28;20545;-71
2022/02/15 04:14:52;;;;;;;15.75;11.82;;;;;;;8.07;67.10;100306.78;5106293;27;20522;-71
2022/02/15 04:17:41;;;;;;;13.05;10.35;;;;;;;8.09;66.14;100306.47;5105489;27;20416;-71
2022/02/15 04:20:26;;;;;;;17.23;8.88;;;;;;;8.01;66.92;100305.31;5114462;27;20043;-71
2022/02/15 04:23:11;;;;;;;10.45;6.10;;;;;;;8.12;66.29;100308.56;5109345;28;20047;-71
2022/02/15 04:25:56;;;;;;;8.82;5.95;;;;;;;8.15;66.01;100299.81;5106764;28;20407;-71
2022/02/15 04:28:48;;;;;;;9.63;7.30;;;;;;;8.11;65.98;100301.53;5100437;28;20055;-71
2022/02/15 04:31:40;;;;;;;14.65;8.63;;;;;;;8.31;64.92;100292.94;5110654;28;20039;-71
2022/02/15 04:34:26;;;;;;;12.15;7.47;;;;;;;8.31;65.02;100289.44;5111709;28;20055;-71
2022/02/15 04:37:11;;;;;;;13.88;7.70;;;;;;;8.30;65.30;100291.34;5113608;28;20043;-71
2022/02/15 04:39:56;;;;;;;;;;;;;;;8.25;66.08;100279.78;5108068;28;20051;-71
2022/02/15 04:42:41;;;;;;;12.85;8.40;;;;;;;8.29;65.71;100284.28;5112689;28;19912;-71
2022/02/15 04:45:29;;;;;;;14.55;9.32;;;;;;;8.47;64.82;100282.50;5113136;28;20066;-71
2022/02/15 04:48:14;;;;;;;14.32;9.70;;;;;;;8.47;65.04;100266.25;5112275;28;20055;-71
2022/02/15 04:50:59;;;;;;;14.23;8.43;;;;;;;8.21;66.84;100262.56;5113413;28;20050;-71
2022/02/15 04:53:44;;;;;;;17.98;12.48;;;;;;;8.22;66.75;100283.94;5113200;28;20042;-71
2022/02/15 04:56:29;;;;;;;16.10;11.00;;;;;;;8.32;66.50;100283.69;5113406;28;20050;-71
2022/02/15 04:59:15;;;;;;;19.85;14.90;;;;;;;8.20;66.99;100282.63;5113136;28;20050;-71
2022/02/15 05:01:59;;;;;;;15.02;11.15;;;;;;;8.15;67.80;100280.84;5113104;28;20050;-71
2022/02/15 05:04:50;;;;;;;15.55;11.98;;;;;;;8.02;67.71;100270.91;5112835;28;20055;-71
2022/02/15 05:07:44;;;;;;;25.02;15.45;;;;;;;7.98;68.18;100280.72;5112896;28;20102;-71
2022/02/15 05:10:32;;;;;;;13.82;10.52;;;;;;;7.84;68.94;100282.72;5100006;28;20422;-71
2022/02/15 05:13:17;;;;;;;18.48;13.10;;;;;;;7.74;69.64;100286.47;5109662;28;20050;-71
2022/02/15 05:16:09;;;;;;;25.10;15.18;;;;;;;7.68;68.47;100266.03;5112700;28;20050;-71
2022/02/15 05:19:03;;;;;;;20.85;15.77;;;;;;;7.63;68.77;100260.72;5112913;28;20062;-71
2022/02/15 05:21:51;;;;;;;20.98;14.82;;;;;;;7.61;69.20;100249.44;5092761;28;20059;-71
2022/02/15 05:24:36;;;;;;;23.02;16.25;;;;;;;7.77;68.32;100258.81;5092095;28;20047;-71
2022/02/15 05:27:22;;;;;;;22.58;15.88;;;;;;;7.85;67.59;100249.13;5092411;28;20047;-71
2022/02/15 05:30:10;;;;;;;20.73;16.52;;;;;;;7.55;68.26;100245.25;5109188;28;20042;-71
2022/02/15 05:33:01;;;;;;;22.98;16.30;;;;;;;7.68;67.77;100253.31;5092244;28;20055;-71
2022/02/15 05:35:46;;;;;;;18.05;12.55;;;;;;;7.65;67.88;100251.22;5092177;28;20043;-71
2022/02/15 05:38:32;;;;;;;23.65;16.67;;;;;;;7.73;67.60;100255.88;5092202;28;20047;-71
2022/02/15 05:41:19;;;;;;;23.02;16.50;;;;;;;7.84;66.41;100251.03;5103754;28;20070;-71
2022/02/15 05:44:07;;;;;;;24.85;17.08;;;;;;;7.70;67.09;100247.59;5112246;28;20054;-71
2022/02/15 05:46:53;;;;;;;23.70;17.88;;;;;;;7.58;67.33;100250.84;5112298;28;20051;-71
2022/02/15 05:50:49;;;;;;;27.50;17.92;;;;;;;7.56;67.20;100250.38;5108947;28;20071;-71
2022/02/15 05:52:52;;;;;;;24.70;17.90;;;;;;;7.50;67.23;100235.34;5103161;28;20046;-71
2022/02/15 05:55:37;;;;;;;20.10;14.15;;;;;;;7.37;67.64;100241.59;5110871;28;20051;-71
2022/02/15 05:58:28;;;;;;;25.60;18.13;;;;;;;7.30;67.83;100235.81;5112441;28;20050;-71
2022/02/15 06:01:14;;;;;;;21.58;16.65;;;;;;;7.24;68.51;100226.22;5111584;28;20043;-71
2022/02/15 06:04:11;;;;;;;17.63;14.10;;;;;;;7.20;68.45;100227.94;5112379;28;20423;-71
2022/02/15 06:07:00;;;;;;;25.27;17.67;;;;;;;7.35;68.56;100226.78;5111930;28;20351;-71
2022/02/15 06:09:46;;;;;;;28.60;18.83;;;;;;;7.27;68.89;100223.69;5112242;28;20059;-71
2022/02/15 06:12:32;;;;;;;25.45;17.08;;;;;;;7.24;69.34;100210.78;5112247;28;20047;-72
2022/02/15 06:15:22;;;;;;;27.23;17.42;;;;;;;7.14;69.76;100211.03;5111197;28;20058;-71
2022/02/15 06:18:20;;;;;;;19.33;14.52;;;;;;;7.23;70.18;100211.88;5103854;28;20047;-71
2022/02/15 06:21:10;;;;;;;23.50;15.95;;;;;;;7.21;70.31;100213.31;5095947;28;20077;-71
2022/02/15 06:23:57;;;;;;;19.42;12.77;;;;;;;7.13;70.27;100216.72;5117067;27;20043;-71
2022/02/15 06:26:42;;;;;;;24.17;16.50;;;;;;;7.13;70.40;100209.41;5110980;28;20043;-71
2022/02/15 06:29:46;;;;;;;26.10;14.70;;;;;;;7.47;70.12;100222.41;5113625;27;20035;-74
2022/02/15 06:32:42;;;;;;;24.10;16.98;;;;;;;6.07;72.70;100210.75;5109561;28;20047;-74
2022/02/15 06:35:31;;;;;;;24.50;16.60;;;;;;;5.92;74.21;100193.75;5111106;28;20415;-74
2022/02/15 06:38:25;;;;;;;26.38;19.10;;;;;;;5.43;76.46;100194.28;5100721;28;20157;-74
2022/02/15 06:41:29;;;;;;;33.05;20.30;;;;;;;5.43;76.51;100194.28;5108239;28;20525;-74
2022/02/15 06:44:30;;;;;;;27.73;21.08;;;;;;;5.66;76.71;100191.75;5110467;28;20054;-74
2022/02/15 06:47:16;;;;;;;28.25;21.25;;;;;;;5.69;74.54;100197.34;5111713;28;20046;-74
2022/02/15 06:50:03;;;;;;;21.52;16.50;;;;;;;5.24;77.16;100189.97;5111916;28;20046;-74
2022/02/15 06:53:10;;;;;;;31.33;21.73;;;;;;;5.18;77.21;100185.78;5114179;28;20063;-74
2022/02/15 06:56:24;;;;;;;30.90;21.17;;;;;;;4.83;77.98;100187.84;5111220;28;20055;-74
2022/02/15 06:59:13;;;;;;;31.30;22.50;;;;;;;4.82;78.76;100186.28;5110747;28;20510;-74
2022/02/15 07:02:00;;;;;;;33.78;24.13;;;;;;;4.79;78.44;100186.84;5106212;28;20039;-73
2022/02/15 07:04:49;;;;;;;38.33;23.98;;;;;;;4.80;78.74;100201.91;5111482;28;20046;-74
2022/02/15 07:07:34;;;;;;;28.95;20.63;;;;;;;4.56;79.69;100193.88;5114606;28;20047;-74
2022/02/15 07:10:20;;;;;;;36.55;25.60;;;;;;;4.58;79.88;100188.19;5109090;28;20430;-74
2022/02/15 07:13:11;;;;;;;35.47;24.08;;;;;;;4.90;79.80;100196.38;5110885;28;20046;-74
2022/02/15 07:15:59;;;;;;;36.15;24.40;;;;;;;5.16;79.04;100194.94;5114136;28;20050;-74
2022/02/15 07:18:47;;;;;;;45.55;22.20;;;;;;;5.15;79.29;100201.44;5100483;28;20074;-74
2022/02/15 07:21:32;;;;;;;31.30;20.30;;;;;;;4.99;79.42;100204.63;5116478;28;20047;-74
2022/02/15 07:24:36;;;;;;;36.00;23.05;;;;;;;5.31;79.74;100195.81;5103958;28;20059;-74
2022/02/15 07:27:40;;;;;;;27.77;17.92;;;;;;;4.61;81.40;100195.69;5105924;28;20039;-73
2022/02/15 07:30:30;;;;;;;36.78;24.55;;;;;;;5.09;82.02;100204.47;5109544;28;20051;-74
2022/02/15 07:33:17;;;;;;;39.38;25.98;;;;;;;4.81;84.27;100214.28;5114664;28;20054;-74
2022/02/15 07:36:03;;;;;;;34.22;22.70;;;;;;;4.68;83.54;100206.91;5104067;28;20054;-74
2022/02/15 07:38:47;;;;;;;34.13;21.67;;;;;;;4.49;83.76;100211.44;5106468;28;20043;-73
2022/02/15 07:41:32;;;;;;;31.00;21.98;;;;;;;4.56;84.86;100204.66;5104333;28;20047;-74
2022/02/15 07:44:17;;;;;;;32.70;22.58;;;;;;;4.94;85.88;100216.28;5118376;28;20062;-74
2022/02/15 07:47:03;;;;;;;36.30;23.05;;;;;;;4.75;85.59;100212.75;5117700;28;20074;-74
2022/02/15 07:49:48;;;;;;;41.40;26.52;;;;;;;4.53;84.13;100213.28;5114746;28;20051;-74
2022/02/15 07:52:32;;;;;;;30.30;20.20;;;;;;;4.42;83.30;100213.72;5114675;28;20054;-74
2022/02/15 07:55:18;;;;;;;35.47;22.08;;;;;;;4.71;84.07;100204.47;5117427;28;20411;-74
2022/02/15 07:58:03;;;;;;;41.15;26.52;;;;;;;4.45;83.44;100218.50;5114305;28;20057;-74
2022/02/15 08:00:48;;;;;;;34.75;21.63;;;;;;;4.52;84.36;100211.66;5114471;28;20054;-74
2022/02/15 08:03:33;;;;;;;28.42;20.17;;;;;;;4.39;83.63;100225.03;5114379;28;20047;-74
2022/02/15 08:06:18;;;;;;;31.02;21.52;;;;;;;4.45;83.89;100216.63;5115007;28;20055;-74
2022/02/15 08:09:03;;;;;;;29.83;19.17;;;;;;;4.94;83.02;100223.53;5112325;28;20051;-74
2022/02/15 08:11:54;;;;;;;26.65;17.20;;;;;;;5.02;81.59;100229.09;5093874;28;20047;-73
2022/02/15 08:14:41;;;;;;;35.15;23.35;;;;;;;4.96;82.20;100222.19;5105524;28;20047;-74
2022/02/15 08:17:26;;;;;;;35.25;23.20;;;;;;;4.95;81.62;100220.56;5114153;28;20050;-74
2022/02/15 08:20:11;;;;;;;39.08;24.23;;;;;;;4.95;81.94;100225.16;5114038;28;20054;-74
2022/02/15 08:22:56;;;;;;;26.95;17.20;;;;;;;5.01;82.45;100226.69;5114086;28;20047;-74
2022/02/15 08:25:41;;;;;;;23.35;16.30;;;;;;;5.13;81.01;100229.75;5113379;28;20050;-74
2022/02/15 08:28:26;;;;;;;24.38;17.30;;;;;;;5.13;81.71;100233.25;5116674;28;20043;-74
2022/02/15 08:31:11;;;;;;;31.10;18.55;;;;;;;5.62;80.61;100229.28;5110796;28;20498;-74
2022/02/15 08:33:56;;;;;;;32.35;17.10;;;;;;;5.28;79.99;100231.44;5107505;28;20521;-74
2022/02/15 08:36:41;;;;;;;24.60;16.05;;;;;;;5.00;81.06;100230.47;5103580;28;20510;-74
2022/02/15 08:39:27;;;;;;;26.08;16.42;;;;;;;5.26;81.31;100229.03;5109820;28;20046;-75
2022/02/15 08:42:12;;;;;;;30.90;19.00;;;;;;;5.14;81.63;100234.84;5103449;28;20048;-74
2022/02/15 08:44:57;;;;;;;18.85;13.65;;;;;;;5.29;81.56;100224.94;5107278;28;20042;-74
2022/02/15 08:47:42;;;;;;;17.55;12.88;;;;;;;5.10;81.77;100230.34;5107606;28;20502;-74
2022/02/15 08:50:27;;;;;;;19.63;13.68;;;;;;;5.01;81.84;100238.28;5111329;28;20039;-74
2022/02/15 08:53:11;;;;;;;17.65;13.40;;;;;;;5.09;82.05;100229.53;5113327;28;20050;-73
2022/02/15 08:55:56;;;;;;;21.10;14.32;;;;;;;5.30;82.04;100227.34;5106148;28;20431;-74
2022/02/15 08:58:44;;;;;;;22.95;16.42;;;;;;;5.40;81.43;100232.59;5103518;28;20047;-74
2022/02/15 09:01:32;;;;;;;26.77;16.85;;;;;;;5.56;80.63;100238.56;5102036;28;20106;-74
2022/02/15 09:04:17;;;;;;;24.08;17.08;;;;;;;5.73;79.29;100238.03;5098551;28;20070;-74
2022/02/15 09:07:02;;;;;;;17.67;12.98;;;;;;;5.46;80.02;100239.53;5103110;28;20066;-73
2022/02/15 09:09:49;;;;;;;31.02;21.67;;;;;;;5.41;81.19;100244.19;5102252;28;20047;-73
2022/02/15 09:12:34;;;;;;;24.52;17.45;;;;;;;5.44;80.97;100240.88;5112599;28;20510;-73
2022/02/15 09:15:19;;;;;;;60.22;34.95;;;;;;;5.40;81.47;100237.19;5116276;28;20534;-74
2022/02/15 09:18:04;;;;;;;19.55;14.93;;;;;;;5.42;81.62;100249.28;5111329;28;20054;-74
2022/02/15 09:20:49;;;;;;;18.50;13.65;;;;;;;5.61;80.80;100243.88;5105888;28;20051;-74
2022/02/15 09:23:35;;;;;;;22.77;17.70;;;;;;;5.51;79.76;100235.94;5111053;28;20059;-74
2022/02/15 09:26:20;;;;;;;21.48;14.30;;;;;;;5.33;80.77;100240.25;5101947;28;20051;-74
2022/02/15 09:29:05;;;;;;;20.20;14.15;;;;;;;5.37;80.51;100241.28;5105360;28;20050;-73
2022/02/15 09:31:50;;;;;;;21.58;14.68;;;;;;;5.42;79.99;100243.09;5108067;28;20051;-74
2022/02/15 09:34:35;;;;;;;24.88;17.77;;;;;;;5.26;81.72;100242.50;5116733;28;20055;-74
2022/02/15 09:37:20;;;;;;;19.45;14.35;;;;;;;5.34;81.09;100247.22;5105952;28;20059;-74
2022/02/15 09:40:06;;;;;;;;;;;;;;;5.44;80.75;100248.97;5110662;28;20422;-74
2022/02/15 09:42:54;;;;;;;23.85;16.30;;;;;;;5.32;81.00;100256.72;5107761;28;19911;-74
2022/02/15 09:45:39;;;;;;;27.45;16.58;;;;;;;5.36;81.67;100255.03;5108016;28;20059;-73
2022/02/15 09:48:25;;;;;;;26.30;16.98;;;;;;;5.18;81.30;100256.66;5111807;28;20047;-73
2022/02/15 09:51:13;;;;;;;30.33;19.70;;;;;;;5.20;82.26;100261.72;5107342;28;20047;-74
2022/02/15 09:53:58;;;;;;;30.02;20.33;;;;;;;5.11;82.12;100258.91;5106883;28;20064;-74
2022/02/15 09:56:43;;;;;;;23.48;15.52;;;;;;;5.08;82.27;100262.94;5106789;28;20526;-73
2022/02/15 09:59:28;;;;;;;22.15;15.90;;;;;;;5.35;81.53;100256.94;5105648;28;20498;-74
2022/02/15 10:02:28;;;;;;;20.00;13.48;;;;;;;5.50;80.98;100259.41;5101513;28;20407;-74
2022/02/15 10:05:15;;;;;;;23.77;16.42;;;;;;;5.63;80.65;100265.97;5108101;28;20510;-74
2022/02/15 10:08:01;;;;;;;27.63;17.98;;;;;;;5.62;80.10;100269.75;5112190;28;20047;-74
2022/02/15 10:10:46;;;;;;;22.50;16.55;;;;;;;5.72;80.29;100275.00;5111901;28;20042;-74
2022/02/15 10:13:31;;;;;;;22.40;14.50;;;;;;;5.85;79.70;100276.13;5112112;28;20050;-74
2022/02/15 10:16:15;;;;;;;17.83;12.57;;;;;;;5.79;79.85;100277.31;5112135;28;20054;-74
2022/02/15 10:19:01;;;;;;;19.25;14.18;;;;;;;5.64;80.21;100280.25;5112229;28;20066;-74
2022/02/15 10:21:48;;;;;;;;;;;;;;;5.69;80.80;100278.25;5112404;28;20054;-73
2022/02/15 10:24:36;;;;;;;20.92;15.52;;;;;;;5.79;79.96;100280.78;5111730;28;19911;-74
2022/02/15 10:27:30;;;;;;;24.55;15.88;;;;;;;5.96;80.39;100286.50;5112141;28;20055;-74
2022/02/15 10:30:26;;;;;;;21.63;15.07;;;;;;;5.95;79.85;100295.69;5111942;28;20556;-74
2022/02/15 10:33:11;;;;;;;21.50;14.52;;;;;;;5.91;80.34;100294.69;5112027;28;20054;-74
2022/02/15 10:36:08;;;;;;;15.68;11.18;;;;;;;6.03;79.39;100296.13;5112861;28;20055;-74
2022/02/15 10:38:57;;;;;;;18.52;13.10;;;;;;;6.06;79.22;100293.63;5111837;28;20047;-74
2022/02/15 10:41:42;;;;;;;14.95;10.20;;;;;;;6.05;79.36;100305.50;5115130;28;20047;-74
2022/02/15 10:44:26;;;;;;;8.32;5.72;;;;;;;5.87;79.73;100304.47;5115566;28;20057;-74
2022/02/15 10:47:12;;;;;;;9.40;5.35;;;;;;;6.13;79.34;100314.84;5115893;28;20050;-73
2022/02/15 10:50:09;;;;;;;32.97;18.50;;;;;;;6.12;78.63;100311.34;5115796;28;20054;-74
2022/02/15 10:52:55;;;;;;;30.55;24.38;;;;;;;6.02;78.66;100311.50;5110569;28;20086;-74
2022/02/15 10:55:40;;;;;;;12.93;8.23;;;;;;;6.19;78.57;100316.38;5110706;28;20067;-74
2022/02/15 10:58:25;;;;;;;16.38;13.27;;;;;;;6.17;79.38;100326.66;5111122;28;20510;-74
2022/02/15 11:01:11;;;;;;;17.15;12.63;;;;;;;6.15;79.33;100326.13;5109040;28;20446;-74
2022/02/15 11:03:57;;;;;;;24.92;16.40;;;;;;;6.00;80.30;100329.88;5102918;28;20042;-74
2022/02/15 11:06:42;;;;;;;22.85;15.70;;;;;;;6.05;80.06;100335.19;5108276;28;20038;-74
2022/02/15 11:09:36;;;;;;;27.83;15.35;;;;;;;6.98;80.08;100330.56;5115170;28;20399;-74
2022/02/15 11:12:32;;;;;;;34.75;23.75;;;;;;;6.20;80.52;100329.56;5115197;28;20042;-74
2022/02/15 11:15:30;;;;;;;31.33;23.25;;;;;;;6.63;81.23;100332.88;5114807;28;20046;-74
2022/02/15 11:18:19;;;;;;;31.02;21.98;;;;;;;6.38;79.98;100325.22;5112540;28;20423;-74
2022/02/15 11:21:06;;;;;;;35.00;22.85;;;;;;;5.98;81.57;100327.50;5114885;28;20047;-74
2022/02/15 11:24:01;;;;;;;39.72;26.20;;;;;;;5.82;83.19;100322.59;5104823;28;20054;-74
2022/02/15 11:26:45;;;;;;;36.83;26.63;;;;;;;5.87;82.58;100315.25;5103773;28;20418;-74
2022/02/15 11:29:31;;;;;;;32.85;21.38;;;;;;;5.95;82.55;100325.38;5105680;28;20054;-74
2022/02/15 11:32:34;;;;;;;38.33;26.67;;;;;;;5.73;81.90;100322.47;5114891;28;20042;-74
2022/02/15 11:35:19;;;;;;;42.08;27.48;;;;;;;5.88;81.73;100321.44;5114483;28;20113;-74
2022/02/15 11:38:14;;;;;;;39.25;23.98;;;;;;;5.93;81.88;100324.88;5114709;28;20047;-74
2022/02/15 11:41:03;;;;;;;44.08;30.55;;;;;;;5.94;81.21;100318.38;5114704;28;20051;-74
2022/02/15 11:43:56;;;;;;;44.05;31.73;;;;;;;5.91;81.61;100320.84;5114505;28;20043;-74
2022/02/15 11:46:43;;;;;;;40.78;30.35;;;;;;;5.91;81.58;100316.25;5114533;28;20051;-74
2022/02/15 11:49:28;;;;;;;40.55;30.45;;;;;;;5.96;80.60;100323.47;5114635;28;20054;-74
2022/02/15 11:52:13;;;;;;;33.25;23.63;;;;;;;5.72;80.81;100315.47;5115362;28;20055;-74
2022/02/15 11:55:04;;;;;;;36.47;22.10;;;;;;;5.66;80.75;100313.91;5114108;28;20066;-74
2022/02/15 11:57:52;;;;;;;39.78;28.92;;;;;;;5.79;82.33;100312.41;5114230;28;20042;-74
2022/02/15 12:00:39;;;;;;;35.95;26.80;;;;;;;5.80;80.66;100304.00;5115003;28;20055;-74
2022/02/15 12:03:24;;;;;;;40.92;29.48;;;;;;;6.21;80.43;100311.47;5114392;28;20070;-74
2022/02/15 12:06:09;;;;;;;29.92;22.52;;;;;;;6.29;79.91;100311.59;5115710;28;20047;-74
2022/02/15 12:08:58;;;;;;;38.42;27.33;;;;;;;6.05;80.49;100310.09;5111371;28;20051;-74
2022/02/15 12:11:47;;;;;;;36.75;26.67;;;;;;;6.08;79.60;100298.72;5112293;28;20050;-74
2022/02/15 12:14:32;;;;;;;34.08;25.27;;;;;;;6.13;80.20;100302.16;5107153;28;20058;-74
2022/02/15 12:17:23;;;;;;;32.80;24.10;;;;;;;6.06;80.20;100306.31;5113386;28;20046;-74
2022/02/15 12:20:12;;;;;;;35.70;23.80;;;;;;;6.53;79.26;100300.63;5117119;28;20050;-74
2022/02/15 12:22:57;;;;;;;30.67;23.13;;;;;;;6.55;79.14;100303.03;5115456;28;20054;-74
2022/02/15 12:25:53;;;;;;;31.25;23.15;;;;;;;6.39;79.49;100307.91;5110723;28;20047;-74
2022/02/15 12:28:38;;;;;;;23.33;18.08;;;;;;;6.38;79.07;100303.63;5115711;28;20411;-74
2022/02/15 12:31:25;;;;;;;27.25;17.75;;;;;;;6.83;77.76;100291.94;5112431;28;20034;-74
2022/02/15 12:34:12;;;;;;;27.83;20.75;;;;;;;7.41;75.60;100288.59;5112587;28;20055;-74
2022/02/15 12:36:59;;;;;;;26.38;19.25;;;;;;;7.36;75.53;100286.00;5109087;28;20043;-74
2022/02/15 12:39:44;;;;;;;26.45;19.30;;;;;;;7.39;76.17;100296.19;5106016;28;20625;-74
2022/02/15 12:42:29;;;;;;;30.73;18.92;;;;;;;7.73;74.61;100291.06;5109972;28;20046;-74
2022/02/15 12:45:14;;;;;;;22.05;13.93;;;;;;;7.69;74.10;100283.88;5110516;28;20051;-74
2022/02/15 12:48:00;;;;;;;18.30;13.18;;;;;;;7.79;74.14;100282.81;5111302;28;20043;-74
2022/02/15 12:50:48;;;;;;;22.05;17.25;;;;;;;7.76;74.38;100286.97;5113083;28;20042;-74
2022/02/15 12:53:33;;;;;;;22.55;16.67;;;;;;;8.12;73.85;100284.19;5110412;28;20043;-74
2022/02/15 12:56:23;;;;;;;18.20;13.50;;;;;;;7.76;74.87;100288.88;5111285;28;20066;-74